Details From EGPF - Glasgow
To EGAC - Belfast City
Flight Number -
Tags generated
Created
Modified
Stats Distance 90 nm / 167 km
Max Altitude 10,300 ft / 3,139 m
Waypoints 3
Social Downloads 3
Likes 0
Share

Download

Looking for another format? Having issues loading an existing format? Contact us
Advertisement - Login to hide

Notes

Basic altitude profile: - Ascent Rate: 2500ft/min - Ascent Speed: 250kts - Cruise Altitude: 35000ft - Cruise Speed: 420kts - Descent Rate: 1500ft/min - Descent Speed: 250kts Options: - Use NATs: yes - Use PACOTS: yes - Use low airways: yes - Use high airways: yes

Route

EGPF HERON EGAC

ID Type Via Altitude (ft/m) Position (lat/lon) Dist (leg/tot) Name
O EGPF APT - 0 / 0 55.87173 / -4.43365 - / 0 nm Glasgow
HERON FIX - 10,300 / 3,139 55.34306 / -5.00000 37 / 37 nm
O EGAC APT - 0 / 0 54.61811 / -5.87258 52 / 90 nm Belfast City

Altitude Profile

Advertisement - Login to hide

EGPF

Details ICAO EGPF (GLA)
Name Glasgow
Region United Kingdom
Timezone Europe/London (UTC+1.0)
Stats Elevation 26 ft / 8 m (AMSL)
Location 55.871700° -4.433700°
Runways 1
Magnetic Variation 1.967° W

METAR

EGPF 280950Z AUTO 27006KT 220V310 9999 BKN045 13/06 Q1027

Decode

TAF

TAF EGPF 280457Z 2806/2906 27009KT 9999 FEW035 BECMG 2815/2817 06010KT

Decode

Departure Runways

ID Width Length Bearing (true/mag) Surface Threshold Overrun Markings Lighting
05 148 ft / 45 m 8,699 ft / 2,651 m 46.34° / 48.30° ASPHALT 0 ft / 0 m 489 ft / 149 m PREC-APP CENTERLINE EDGE THRESHOLD MALSF
23 148 ft / 45 m 8,699 ft / 2,651 m 226.36° / 228.33° ASPHALT 974 ft / 297 m 0 ft / 0 m PREC-APP CENTERLINE EDGE THRESHOLD MALSF

EGAC

Details ICAO EGAC (BHD)
Name George Best - Belfast City
Region United Kingdom
Timezone Europe/London (UTC+1.0)
Stats Elevation 15 ft / 5 m (AMSL)
Location 54.618100° -5.872440°
Runways 1
Magnetic Variation 2.341° W

METAR

EGAC 280950Z AUTO 03003KT 270V070 9999 FEW026/// BKN039/// 13/07 Q1028

Decode

TAF

Not found

Destination Runways

ID Width Length Bearing (true/mag) Surface Threshold Overrun Markings Lighting
04 150 ft / 46 m 5,946 ft / 1,812 m 34.69° / 37.03° ASPHALT 256 ft / 78 m 0 ft / 0 m PREC-APP CENTERLINE EDGE THRESHOLD MALSF REIL-OMNI
22 150 ft / 46 m 5,946 ft / 1,812 m 214.70° / 217.04° ASPHALT 0 ft / 0 m 0 ft / 0 m PREC-APP CENTERLINE EDGE THRESHOLD MALSF REIL-OMNI

Approach Navaids

Runway Type Ident Frequency Range Bearing (true/mag) Slope Elevation
04 DME HBD 108.10 MHz 18 nm / 33 km - - 30 ft / 9 m (AMSL)
04 GS IHBD 108.10 MHz 10 nm / 19 km 34.70° / 37.04 ° 3.00° 15 ft / 5 m (AMSL)
04 LOC-ILS IHBD 108.10 MHz 18 nm / 33 km 34.70° / 37.04 ° - 15 ft / 5 m (AMSL)
22 LOC-ILS IBFH 108.10 MHz 18 nm / 33 km 214.70° / 217.04 ° - 15 ft / 5 m (AMSL)
22 DME IBFH 108.10 MHz 18 nm / 33 km - - 30 ft / 9 m (AMSL)
22 GS IBFH 108.10 MHz 10 nm / 19 km 216.70° / 219.04 ° 3.00° 15 ft / 5 m (AMSL)

Popular Alternatives